X  Tanca Dades meteorològiques de l'aviació METAR     EHEH Eindhoven Airport
Temperatura
46°F Temperatura
41°F Rosada
82% Humitat



Vent
5 MPH
8 KM/H
2 M/S
4 NUS



350°
N
Condicions actuals

Parcialment ennuvolat Parcialment ennuvolat
Pressió 1023.92 (hPa) - 30.24 (inHg)
Visibilitat 6.2 (milla) - 10 (km)
Aeroport
Codi aeroport EHEH

Ubicació: Eindhoven Airport
Distància: 10 (mi)

Metar:
EHEH 301430Z AUTO 35004KT 310V050 9999 FEW015 BKN028 BKN031 08/05 Q1024 BLU NOSIG

Temps: 30-11-2022 15:30 CET